sensor_id;sensor_type;location;lat;lon;timestamp;P1;durP1;ratioP1;P2;durP2;ratioP2
18973;SDS011;9621;48.690;9.466;2023-11-21T00:07:42;8.57;;;3.47;;
18973;SDS011;9621;48.690;9.466;2023-11-21T00:10:10;7.97;;;3.00;;
18973;SDS011;9621;48.690;9.466;2023-11-21T00:12:39;6.37;;;3.13;;
18973;SDS011;9621;48.690;9.466;2023-11-21T00:15:07;7.13;;;2.77;;
18973;SDS011;9621;48.690;9.466;2023-11-21T00:17:35;7.07;;;2.70;;
18973;SDS011;9621;48.690;9.466;2023-11-21T00:20:03;5.83;;;2.77;;
18973;SDS011;9621;48.690;9.466;2023-11-21T00:22:31;6.47;;;3.37;;
18973;SDS011;9621;48.690;9.466;2023-11-21T00:25:00;7.37;;;3.07;;
18973;SDS011;9621;48.690;9.466;2023-11-21T00:27:28;9.63;;;3.10;;
18973;SDS011;9621;48.690;9.466;2023-11-21T00:29:55;8.87;;;3.23;;
18973;SDS011;9621;48.690;9.466;2023-11-21T00:32:22;6.20;;;3.10;;
18973;SDS011;9621;48.690;9.466;2023-11-21T00:34:49;8.03;;;3.20;;
18973;SDS011;9621;48.690;9.466;2023-11-21T00:37:16;5.77;;;3.13;;
18973;SDS011;9621;48.690;9.466;2023-11-21T00:39:43;10.47;;;2.87;;
18973;SDS011;9621;48.690;9.466;2023-11-21T00:42:12;5.40;;;2.97;;
18973;SDS011;9621;48.690;9.466;2023-11-21T00:44:39;6.03;;;3.33;;
18973;SDS011;9621;48.690;9.466;2023-11-21T00:47:06;6.10;;;2.97;;
18973;SDS011;9621;48.690;9.466;2023-11-21T00:49:33;7.00;;;3.30;;
18973;SDS011;9621;48.690;9.466;2023-11-21T00:52:00;4.93;;;2.70;;
18973;SDS011;9621;48.690;9.466;2023-11-21T00:54:27;8.70;;;3.33;;
18973;SDS011;9621;48.690;9.466;2023-11-21T00:56:54;7.07;;;3.10;;
18973;SDS011;9621;48.690;9.466;2023-11-21T00:59:23;6.63;;;3.13;;
18973;SDS011;9621;48.690;9.466;2023-11-21T01:01:50;5.33;;;2.77;;
18973;SDS011;9621;48.690;9.466;2023-11-21T01:04:16;7.30;;;3.20;;
18973;SDS011;9621;48.690;9.466;2023-11-21T01:06:43;9.60;;;3.10;;
18973;SDS011;9621;48.690;9.466;2023-11-21T01:09:10;6.63;;;3.13;;
18973;SDS011;9621;48.690;9.466;2023-11-21T01:11:37;4.80;;;2.67;;
18973;SDS011;9621;48.690;9.466;2023-11-21T01:14:04;7.17;;;2.93;;
18973;SDS011;9621;48.690;9.466;2023-11-21T01:16:33;6.77;;;3.33;;
18973;SDS011;9621;48.690;9.466;2023-11-21T01:19:00;9.93;;;3.03;;
18973;SDS011;9621;48.690;9.466;2023-11-21T01:21:27;9.47;;;3.37;;
18973;SDS011;9621;48.690;9.466;2023-11-21T01:23:55;8.30;;;3.37;;
18973;SDS011;9621;48.690;9.466;2023-11-21T01:26:22;10.40;;;3.93;;
18973;SDS011;9621;48.690;9.466;2023-11-21T01:28:49;7.37;;;3.77;;
18973;SDS011;9621;48.690;9.466;2023-11-21T01:31:16;5.93;;;3.10;;
18973;SDS011;9621;48.690;9.466;2023-11-21T01:33:45;9.43;;;3.73;;
18973;SDS011;9621;48.690;9.466;2023-11-21T01:36:13;7.80;;;3.63;;
18973;SDS011;9621;48.690;9.466;2023-11-21T01:38:40;10.17;;;4.30;;
18973;SDS011;9621;48.690;9.466;2023-11-21T01:41:07;12.07;;;4.63;;
18973;SDS011;9621;48.690;9.466;2023-11-21T01:43:36;9.23;;;4.37;;
18973;SDS011;9621;48.690;9.466;2023-11-21T01:46:03;8.83;;;4.50;;
18973;SDS011;9621;48.690;9.466;2023-11-21T01:48:31;8.10;;;4.37;;
18973;SDS011;9621;48.690;9.466;2023-11-21T01:51:00;9.50;;;4.63;;
18973;SDS011;9621;48.690;9.466;2023-11-21T01:53:27;8.50;;;4.17;;
18973;SDS011;9621;48.690;9.466;2023-11-21T01:55:55;8.17;;;3.80;;
18973;SDS011;9621;48.690;9.466;2023-11-21T01:58:22;5.57;;;3.67;;
18973;SDS011;9621;48.690;9.466;2023-11-21T02:00:49;10.03;;;4.10;;
18973;SDS011;9621;48.690;9.466;2023-11-21T02:03:18;7.50;;;3.70;;
18973;SDS011;9621;48.690;9.466;2023-11-21T02:05:44;8.63;;;3.77;;
18973;SDS011;9621;48.690;9.466;2023-11-21T02:08:13;8.83;;;3.77;;
18973;SDS011;9621;48.690;9.466;2023-11-21T02:10:40;7.77;;;3.60;;
18973;SDS011;9621;48.690;9.466;2023-11-21T02:13:07;6.40;;;3.07;;
18973;SDS011;9621;48.690;9.466;2023-11-21T02:15:33;7.63;;;3.30;;
18973;SDS011;9621;48.690;9.466;2023-11-21T02:18:00;9.90;;;3.73;;
18973;SDS011;9621;48.690;9.466;2023-11-21T02:20:28;4.70;;;3.63;;
18973;SDS011;9621;48.690;9.466;2023-11-21T02:22:56;8.47;;;3.73;;
18973;SDS011;9621;48.690;9.466;2023-11-21T02:25:24;5.30;;;3.87;;
18973;SDS011;9621;48.690;9.466;2023-11-21T02:27:52;6.73;;;3.37;;
18973;SDS011;9621;48.690;9.466;2023-11-21T02:30:20;7.33;;;3.60;;
18973;SDS011;9621;48.690;9.466;2023-11-21T02:32:47;8.07;;;4.10;;
18973;SDS011;9621;48.690;9.466;2023-11-21T02:35:14;6.73;;;3.80;;
18973;SDS011;9621;48.690;9.466;2023-11-21T02:37:41;9.13;;;3.43;;
18973;SDS011;9621;48.690;9.466;2023-11-21T02:40:10;8.03;;;3.67;;
18973;SDS011;9621;48.690;9.466;2023-11-21T02:42:42;9.00;;;3.67;;
18973;SDS011;9621;48.690;9.466;2023-11-21T02:45:09;4.53;;;2.97;;
18973;SDS011;9621;48.690;9.466;2023-11-21T02:47:38;8.70;;;3.47;;
18973;SDS011;9621;48.690;9.466;2023-11-21T02:50:05;6.90;;;3.80;;
18973;SDS011;9621;48.690;9.466;2023-11-21T02:52:34;8.87;;;3.67;;
18973;SDS011;9621;48.690;9.466;2023-11-21T02:55:00;4.87;;;3.20;;
18973;SDS011;9621;48.690;9.466;2023-11-21T02:57:29;7.67;;;3.53;;
18973;SDS011;9621;48.690;9.466;2023-11-21T02:59:55;8.50;;;3.17;;
18973;SDS011;9621;48.690;9.466;2023-11-21T03:02:22;7.73;;;3.30;;
18973;SDS011;9621;48.690;9.466;2023-11-21T03:04:49;5.00;;;2.80;;
18973;SDS011;9621;48.690;9.466;2023-11-21T03:07:16;6.17;;;3.20;;
18973;SDS011;9621;48.690;9.466;2023-11-21T03:09:44;5.93;;;2.50;;
18973;SDS011;9621;48.690;9.466;2023-11-21T03:12:11;7.10;;;3.03;;
18973;SDS011;9621;48.690;9.466;2023-11-21T03:14:40;5.00;;;2.70;;
18973;SDS011;9621;48.690;9.466;2023-11-21T03:17:07;6.20;;;2.87;;
18973;SDS011;9621;48.690;9.466;2023-11-21T03:19:33;4.77;;;3.47;;
18973;SDS011;9621;48.690;9.466;2023-11-21T03:22:00;8.67;;;3.90;;
18973;SDS011;9621;48.690;9.466;2023-11-21T03:24:27;8.03;;;3.10;;
18973;SDS011;9621;48.690;9.466;2023-11-21T03:26:54;7.07;;;2.90;;
18973;SDS011;9621;48.690;9.466;2023-11-21T03:29:21;7.30;;;3.70;;
18973;SDS011;9621;48.690;9.466;2023-11-21T03:31:50;4.27;;;3.00;;
18973;SDS011;9621;48.690;9.466;2023-11-21T03:34:22;7.30;;;3.07;;
18973;SDS011;9621;48.690;9.466;2023-11-21T03:36:50;4.27;;;2.70;;
18973;SDS011;9621;48.690;9.466;2023-11-21T03:39:18;5.43;;;2.97;;
18973;SDS011;9621;48.690;9.466;2023-11-21T03:41:45;6.50;;;3.03;;
18973;SDS011;9621;48.690;9.466;2023-11-21T03:44:12;5.17;;;2.97;;
18973;SDS011;9621;48.690;9.466;2023-11-21T03:46:39;5.63;;;2.63;;
18973;SDS011;9621;48.690;9.466;2023-11-21T03:49:08;5.07;;;2.67;;
18973;SDS011;9621;48.690;9.466;2023-11-21T03:51:35;7.77;;;2.77;;
18973;SDS011;9621;48.690;9.466;2023-11-21T03:54:02;4.03;;;2.50;;
18973;SDS011;9621;48.690;9.466;2023-11-21T03:56:30;5.53;;;2.77;;
18973;SDS011;9621;48.690;9.466;2023-11-21T03:58:57;5.10;;;2.83;;
18973;SDS011;9621;48.690;9.466;2023-11-21T04:01:24;8.10;;;3.20;;
18973;SDS011;9621;48.690;9.466;2023-11-21T04:03:51;5.57;;;2.50;;
18973;SDS011;9621;48.690;9.466;2023-11-21T04:06:19;4.37;;;2.70;;
18973;SDS011;9621;48.690;9.466;2023-11-21T04:08:47;6.27;;;2.83;;
18973;SDS011;9621;48.690;9.466;2023-11-21T04:11:14;4.30;;;2.50;;
18973;SDS011;9621;48.690;9.466;2023-11-21T04:13:41;11.27;;;2.50;;
18973;SDS011;9621;48.690;9.466;2023-11-21T04:16:08;4.80;;;2.50;;
18973;SDS011;9621;48.690;9.466;2023-11-21T04:18:35;6.13;;;2.60;;
18973;SDS011;9621;48.690;9.466;2023-11-21T04:21:03;7.23;;;2.53;;
18973;SDS011;9621;48.690;9.466;2023-11-21T04:23:32;7.70;;;2.50;;
18973;SDS011;9621;48.690;9.466;2023-11-21T04:26:00;3.53;;;2.60;;
18973;SDS011;9621;48.690;9.466;2023-11-21T04:28:28;6.33;;;2.93;;
18973;SDS011;9621;48.690;9.466;2023-11-21T04:30:55;5.40;;;2.47;;
18973;SDS011;9621;48.690;9.466;2023-11-21T04:33:22;5.63;;;2.33;;
18973;SDS011;9621;48.690;9.466;2023-11-21T04:35:50;5.03;;;2.57;;
18973;SDS011;9621;48.690;9.466;2023-11-21T04:38:17;4.90;;;2.27;;
18973;SDS011;9621;48.690;9.466;2023-11-21T04:40:45;3.87;;;2.10;;
18973;SDS011;9621;48.690;9.466;2023-11-21T04:43:12;4.50;;;2.17;;
18973;SDS011;9621;48.690;9.466;2023-11-21T04:45:39;3.30;;;2.13;;
18973;SDS011;9621;48.690;9.466;2023-11-21T04:48:06;8.40;;;1.97;;
18973;SDS011;9621;48.690;9.466;2023-11-21T04:50:33;2.33;;;1.83;;
18973;SDS011;9621;48.690;9.466;2023-11-21T04:53:00;3.57;;;1.80;;
18973;SDS011;9621;48.690;9.466;2023-11-21T04:55:28;5.90;;;1.90;;
18973;SDS011;9621;48.690;9.466;2023-11-21T04:57:56;2.77;;;1.50;;
18973;SDS011;9621;48.690;9.466;2023-11-21T05:00:23;3.57;;;1.57;;
18973;SDS011;9621;48.690;9.466;2023-11-21T05:02:50;2.10;;;1.53;;
18973;SDS011;9621;48.690;9.466;2023-11-21T05:05:17;3.73;;;1.70;;
18973;SDS011;9621;48.690;9.466;2023-11-21T05:07:44;4.27;;;1.70;;
18973;SDS011;9621;48.690;9.466;2023-11-21T05:10:11;6.97;;;1.90;;
18973;SDS011;9621;48.690;9.466;2023-11-21T05:12:40;2.77;;;1.50;;
18973;SDS011;9621;48.690;9.466;2023-11-21T05:15:09;4.30;;;1.23;;
18973;SDS011;9621;48.690;9.466;2023-11-21T05:17:41;2.70;;;1.63;;
18973;SDS011;9621;48.690;9.466;2023-11-21T05:20:09;3.60;;;1.33;;
18973;SDS011;9621;48.690;9.466;2023-11-21T05:22:37;1.23;;;0.90;;
18973;SDS011;9621;48.690;9.466;2023-11-21T05:25:05;2.60;;;1.30;;
18973;SDS011;9621;48.690;9.466;2023-11-21T05:27:33;3.87;;;1.47;;
18973;SDS011;9621;48.690;9.466;2023-11-21T05:30:00;2.50;;;1.77;;
18973;SDS011;9621;48.690;9.466;2023-11-21T05:32:31;2.97;;;1.70;;
18973;SDS011;9621;48.690;9.466;2023-11-21T05:34:58;5.50;;;1.80;;
18973;SDS011;9621;48.690;9.466;2023-11-21T05:37:26;4.80;;;1.60;;
18973;SDS011;9621;48.690;9.466;2023-11-21T05:39:52;3.40;;;1.50;;
18973;SDS011;9621;48.690;9.466;2023-11-21T05:42:21;5.10;;;1.63;;
18973;SDS011;9621;48.690;9.466;2023-11-21T05:44:48;3.60;;;1.40;;
18973;SDS011;9621;48.690;9.466;2023-11-21T05:47:15;3.77;;;1.20;;
18973;SDS011;9621;48.690;9.466;2023-11-21T05:49:44;3.23;;;1.40;;
18973;SDS011;9621;48.690;9.466;2023-11-21T05:52:15;2.97;;;1.17;;
18973;SDS011;9621;48.690;9.466;2023-11-21T05:54:43;2.03;;;1.00;;
18973;SDS011;9621;48.690;9.466;2023-11-21T05:57:13;2.10;;;1.23;;
18973;SDS011;9621;48.690;9.466;2023-11-21T05:59:40;1.50;;;1.00;;
18973;SDS011;9621;48.690;9.466;2023-11-21T06:02:07;3.30;;;1.40;;
18973;SDS011;9621;48.690;9.466;2023-11-21T06:04:34;2.20;;;1.37;;
18973;SDS011;9621;48.690;9.466;2023-11-21T06:07:02;2.87;;;1.20;;
18973;SDS011;9621;48.690;9.466;2023-11-21T06:09:30;2.37;;;1.40;;
18973;SDS011;9621;48.690;9.466;2023-11-21T06:11:56;4.23;;;1.17;;
18973;SDS011;9621;48.690;9.466;2023-11-21T06:14:24;1.93;;;1.00;;
18973;SDS011;9621;48.690;9.466;2023-11-21T06:16:51;1.53;;;1.10;;
18973;SDS011;9621;48.690;9.466;2023-11-21T06:19:17;2.80;;;0.90;;
18973;SDS011;9621;48.690;9.466;2023-11-21T06:21:45;1.63;;;0.93;;
18973;SDS011;9621;48.690;9.466;2023-11-21T06:24:14;4.20;;;0.97;;
18973;SDS011;9621;48.690;9.466;2023-11-21T06:26:42;5.53;;;1.20;;
18973;SDS011;9621;48.690;9.466;2023-11-21T06:29:15;1.43;;;0.80;;
18973;SDS011;9621;48.690;9.466;2023-11-21T06:31:42;3.10;;;0.80;;
18973;SDS011;9621;48.690;9.466;2023-11-21T06:34:09;1.33;;;0.90;;
18973;SDS011;9621;48.690;9.466;2023-11-21T06:36:36;1.17;;;0.90;;
18973;SDS011;9621;48.690;9.466;2023-11-21T06:39:02;5.80;;;1.70;;
18973;SDS011;9621;48.690;9.466;2023-11-21T06:41:33;3.07;;;1.70;;
18973;SDS011;9621;48.690;9.466;2023-11-21T06:44:00;4.30;;;1.30;;
18973;SDS011;9621;48.690;9.466;2023-11-21T06:46:27;2.13;;;1.37;;
18973;SDS011;9621;48.690;9.466;2023-11-21T06:48:54;1.60;;;1.10;;
18973;SDS011;9621;48.690;9.466;2023-11-21T06:51:21;4.10;;;1.60;;
18973;SDS011;9621;48.690;9.466;2023-11-21T06:53:48;4.23;;;2.27;;
18973;SDS011;9621;48.690;9.466;2023-11-21T06:56:15;11.47;;;3.80;;
18973;SDS011;9621;48.690;9.466;2023-11-21T06:58:44;13.60;;;4.00;;
18973;SDS011;9621;48.690;9.466;2023-11-21T07:01:12;19.57;;;8.47;;
18973;SDS011;9621;48.690;9.466;2023-11-21T07:03:40;33.73;;;13.60;;
18973;SDS011;9621;48.690;9.466;2023-11-21T07:06:07;29.17;;;12.70;;
18973;SDS011;9621;48.690;9.466;2023-11-21T07:08:35;35.13;;;12.27;;
18973;SDS011;9621;48.690;9.466;2023-11-21T07:11:02;28.60;;;11.77;;
18973;SDS011;9621;48.690;9.466;2023-11-21T07:13:29;27.03;;;9.90;;
18973;SDS011;9621;48.690;9.466;2023-11-21T07:15:57;25.40;;;11.37;;
18973;SDS011;9621;48.690;9.466;2023-11-21T07:18:25;31.10;;;12.43;;
18973;SDS011;9621;48.690;9.466;2023-11-21T07:20:52;24.60;;;10.63;;
18973;SDS011;9621;48.690;9.466;2023-11-21T07:23:19;27.47;;;11.10;;
18973;SDS011;9621;48.690;9.466;2023-11-21T07:25:47;25.90;;;9.20;;
18973;SDS011;9621;48.690;9.466;2023-11-21T07:28:14;24.50;;;10.40;;
18973;SDS011;9621;48.690;9.466;2023-11-21T07:30:41;18.60;;;8.13;;
18973;SDS011;9621;48.690;9.466;2023-11-21T07:33:10;15.63;;;7.17;;
18973;SDS011;9621;48.690;9.466;2023-11-21T07:35:37;13.20;;;6.20;;
18973;SDS011;9621;48.690;9.466;2023-11-21T07:38:04;9.03;;;4.60;;
18973;SDS011;9621;48.690;9.466;2023-11-21T07:40:31;9.73;;;3.67;;
18973;SDS011;9621;48.690;9.466;2023-11-21T07:42:58;8.80;;;3.40;;
18973;SDS011;9621;48.690;9.466;2023-11-21T07:45:25;7.63;;;2.80;;
18973;SDS011;9621;48.690;9.466;2023-11-21T07:47:52;7.23;;;3.33;;
18973;SDS011;9621;48.690;9.466;2023-11-21T07:50:21;5.67;;;2.60;;
18973;SDS011;9621;48.690;9.466;2023-11-21T07:52:48;6.67;;;2.77;;
18973;SDS011;9621;48.690;9.466;2023-11-21T07:55:15;2.87;;;2.00;;
18973;SDS011;9621;48.690;9.466;2023-11-21T07:57:42;5.23;;;1.93;;
18973;SDS011;9621;48.690;9.466;2023-11-21T08:00:10;4.37;;;2.23;;
18973;SDS011;9621;48.690;9.466;2023-11-21T08:02:38;4.70;;;2.60;;
18973;SDS011;9621;48.690;9.466;2023-11-21T08:05:07;5.03;;;2.60;;
18973;SDS011;9621;48.690;9.466;2023-11-21T08:07:35;7.73;;;2.90;;
18973;SDS011;9621;48.690;9.466;2023-11-21T08:10:03;4.43;;;2.47;;
18973;SDS011;9621;48.690;9.466;2023-11-21T08:12:30;6.07;;;2.87;;
18973;SDS011;9621;48.690;9.466;2023-11-21T08:14:57;6.40;;;3.40;;
18973;SDS011;9621;48.690;9.466;2023-11-21T08:17:24;6.87;;;3.67;;
18973;SDS011;9621;48.690;9.466;2023-11-21T08:19:51;7.70;;;3.80;;
18973;SDS011;9621;48.690;9.466;2023-11-21T08:22:18;7.17;;;4.10;;
18973;SDS011;9621;48.690;9.466;2023-11-21T08:24:47;8.97;;;4.70;;
18973;SDS011;9621;48.690;9.466;2023-11-21T08:27:13;9.70;;;5.17;;
18973;SDS011;9621;48.690;9.466;2023-11-21T08:29:41;10.77;;;5.67;;
18973;SDS011;9621;48.690;9.466;2023-11-21T08:32:08;23.40;;;14.63;;
18973;SDS011;9621;48.690;9.466;2023-11-21T08:34:36;16.87;;;11.37;;
18973;SDS011;9621;48.690;9.466;2023-11-21T08:37:08;11.30;;;7.00;;
18973;SDS011;9621;48.690;9.466;2023-11-21T08:39:36;9.73;;;4.83;;
18973;SDS011;9621;48.690;9.466;2023-11-21T08:42:05;6.87;;;4.53;;
18973;SDS011;9621;48.690;9.466;2023-11-21T08:44:33;4.00;;;2.37;;
18973;SDS011;9621;48.690;9.466;2023-11-21T08:47:00;2.40;;;1.90;;
18973;SDS011;9621;48.690;9.466;2023-11-21T08:49:27;2.20;;;1.30;;
18973;SDS011;9621;48.690;9.466;2023-11-21T08:51:54;1.77;;;1.20;;
18973;SDS011;9621;48.690;9.466;2023-11-21T08:54:22;2.20;;;1.20;;
18973;SDS011;9621;48.690;9.466;2023-11-21T08:56:50;2.37;;;1.20;;
18973;SDS011;9621;48.690;9.466;2023-11-21T08:59:19;1.60;;;1.17;;
18973;SDS011;9621;48.690;9.466;2023-11-21T09:01:46;1.60;;;1.10;;
18973;SDS011;9621;48.690;9.466;2023-11-21T09:04:13;1.87;;;1.20;;
18973;SDS011;9621;48.690;9.466;2023-11-21T09:06:40;2.47;;;1.40;;
18973;SDS011;9621;48.690;9.466;2023-11-21T09:09:07;2.27;;;1.07;;
18973;SDS011;9621;48.690;9.466;2023-11-21T09:11:35;2.93;;;1.03;;
18973;SDS011;9621;48.690;9.466;2023-11-21T09:14:02;2.27;;;0.87;;
18973;SDS011;9621;48.690;9.466;2023-11-21T09:16:30;1.83;;;1.00;;
18973;SDS011;9621;48.690;9.466;2023-11-21T09:18:58;2.67;;;1.10;;
18973;SDS011;9621;48.690;9.466;2023-11-21T09:21:25;1.47;;;1.00;;
18973;SDS011;9621;48.690;9.466;2023-11-21T09:23:52;2.27;;;1.17;;
18973;SDS011;9621;48.690;9.466;2023-11-21T09:26:19;2.00;;;0.90;;
18973;SDS011;9621;48.690;9.466;2023-11-21T09:28:46;5.27;;;1.33;;
18973;SDS011;9621;48.690;9.466;2023-11-21T09:31:13;1.30;;;0.80;;
18973;SDS011;9621;48.690;9.466;2023-11-21T09:33:43;2.90;;;0.80;;
18973;SDS011;9621;48.690;9.466;2023-11-21T09:36:11;1.85;;;0.70;;
18973;SDS011;9621;48.690;9.466;2023-11-21T09:38:39;1.00;;;0.77;;
18973;SDS011;9621;48.690;9.466;2023-11-21T09:41:09;3.23;;;0.80;;
18973;SDS011;9621;48.690;9.466;2023-11-21T09:43:42;1.40;;;0.90;;
18973;SDS011;9621;48.690;9.466;2023-11-21T09:46:12;1.42;;;0.93;;
18973;SDS011;9621;48.690;9.466;2023-11-21T09:48:46;1.90;;;1.40;;
18973;SDS011;9621;48.690;9.466;2023-11-21T09:51:17;2.00;;;0.97;;
18973;SDS011;9621;48.690;9.466;2023-11-21T09:53:48;2.67;;;0.77;;
18973;SDS011;9621;48.690;9.466;2023-11-21T09:56:18;6.90;;;1.00;;
18973;SDS011;9621;48.690;9.466;2023-11-21T09:58:50;2.63;;;0.95;;
18973;SDS011;9621;48.690;9.466;2023-11-21T10:01:19;3.27;;;1.00;;
18973;SDS011;9621;48.690;9.466;2023-11-21T10:03:50;1.07;;;0.90;;
18973;SDS011;9621;48.690;9.466;2023-11-21T10:06:17;1.52;;;0.98;;
18973;SDS011;9621;48.690;9.466;2023-11-21T10:08:45;1.90;;;1.00;;
18973;SDS011;9621;48.690;9.466;2023-11-21T10:11:13;3.43;;;0.93;;
18973;SDS011;9621;48.690;9.466;2023-11-21T10:13:41;2.40;;;1.00;;
18973;SDS011;9621;48.690;9.466;2023-11-21T10:16:10;3.75;;;1.00;;
18973;SDS011;9621;48.690;9.466;2023-11-21T10:18:42;1.20;;;1.10;;
18973;SDS011;9621;48.690;9.466;2023-11-21T10:21:12;1.45;;;1.17;;
18973;SDS011;9621;48.690;9.466;2023-11-21T10:23:39;6.55;;;1.50;;
18973;SDS011;9621;48.690;9.466;2023-11-21T10:26:06;3.95;;;1.15;;
18973;SDS011;9621;48.690;9.466;2023-11-21T10:28:41;1.48;;;1.25;;
18973;SDS011;9621;48.690;9.466;2023-11-21T10:31:08;1.85;;;1.10;;
18973;SDS011;9621;48.690;9.466;2023-11-21T10:33:35;1.17;;;1.05;;
18973;SDS011;9621;48.690;9.466;2023-11-21T10:36:02;2.03;;;1.08;;
18973;SDS011;9621;48.690;9.466;2023-11-21T10:38:33;2.92;;;1.30;;
18973;SDS011;9621;48.690;9.466;2023-11-21T10:41:10;2.70;;;1.60;;
18973;SDS011;9621;48.690;9.466;2023-11-21T10:43:40;1.77;;;1.50;;
18973;SDS011;9621;48.690;9.466;2023-11-21T10:46:07;3.03;;;1.63;;
18973;SDS011;9621;48.690;9.466;2023-11-21T10:48:34;1.80;;;1.20;;
18973;SDS011;9621;48.690;9.466;2023-11-21T10:51:06;2.45;;;1.20;;
18973;SDS011;9621;48.690;9.466;2023-11-21T10:53:39;1.63;;;1.08;;
18973;SDS011;9621;48.690;9.466;2023-11-21T10:56:08;1.42;;;0.90;;
18973;SDS011;9621;48.690;9.466;2023-11-21T10:58:42;4.15;;;1.10;;
18973;SDS011;9621;48.690;9.466;2023-11-21T11:01:10;1.42;;;0.90;;
18973;SDS011;9621;48.690;9.466;2023-11-21T11:03:39;8.95;;;3.20;;
18973;SDS011;9621;48.690;9.466;2023-11-21T11:06:07;3.85;;;1.70;;
18973;SDS011;9621;48.690;9.466;2023-11-21T11:08:36;2.67;;;1.40;;
18973;SDS011;9621;48.690;9.466;2023-11-21T11:11:05;2.95;;;1.48;;
18973;SDS011;9621;48.690;9.466;2023-11-21T11:13:37;3.22;;;1.67;;
18973;SDS011;9621;48.690;9.466;2023-11-21T11:16:04;2.33;;;1.38;;
18973;SDS011;9621;48.690;9.466;2023-11-21T11:18:35;1.60;;;1.10;;
18973;SDS011;9621;48.690;9.466;2023-11-21T11:21:06;2.40;;;1.30;;
18973;SDS011;9621;48.690;9.466;2023-11-21T11:23:44;1.83;;;1.20;;
18973;SDS011;9621;48.690;9.466;2023-11-21T11:26:23;1.17;;;1.08;;
18973;SDS011;9621;48.690;9.466;2023-11-21T11:29:01;3.45;;;1.20;;
18973;SDS011;9621;48.690;9.466;2023-11-21T11:31:38;2.65;;;1.33;;
18973;SDS011;9621;48.690;9.466;2023-11-21T11:34:18;1.85;;;1.15;;
18973;SDS011;9621;48.690;9.466;2023-11-21T11:36:53;2.08;;;1.30;;
18973;SDS011;9621;48.690;9.466;2023-11-21T11:39:30;1.77;;;1.13;;
18973;SDS011;9621;48.690;9.466;2023-11-21T11:42:03;1.63;;;0.95;;
18973;SDS011;9621;48.690;9.466;2023-11-21T11:44:48;3.33;;;1.20;;
18973;SDS011;9621;48.690;9.466;2023-11-21T11:47:19;1.33;;;0.80;;
18973;SDS011;9621;48.690;9.466;2023-11-21T11:49:57;1.60;;;0.90;;
18973;SDS011;9621;48.690;9.466;2023-11-21T11:52:32;3.90;;;1.77;;
18973;SDS011;9621;48.690;9.466;2023-11-21T11:55:01;2.10;;;1.50;;
18973;SDS011;9621;48.690;9.466;2023-11-21T11:57:29;2.67;;;1.52;;
18973;SDS011;9621;48.690;9.466;2023-11-21T12:00:13;2.03;;;1.17;;
18973;SDS011;9621;48.690;9.466;2023-11-21T12:02:50;1.70;;;1.10;;
18973;SDS011;9621;48.690;9.466;2023-11-21T12:05:18;2.78;;;1.10;;
18973;SDS011;9621;48.690;9.466;2023-11-21T12:07:47;1.55;;;0.85;;
18973;SDS011;9621;48.690;9.466;2023-11-21T12:10:18;1.88;;;0.93;;
18973;SDS011;9621;48.690;9.466;2023-11-21T12:12:46;1.33;;;0.80;;
18973;SDS011;9621;48.690;9.466;2023-11-21T12:15:15;0.85;;;0.75;;
18973;SDS011;9621;48.690;9.466;2023-11-21T12:17:42;2.38;;;1.00;;
18973;SDS011;9621;48.690;9.466;2023-11-21T12:20:10;1.67;;;0.82;;
18973;SDS011;9621;48.690;9.466;2023-11-21T12:22:43;4.45;;;0.80;;
18973;SDS011;9621;48.690;9.466;2023-11-21T12:25:14;2.50;;;0.80;;
18973;SDS011;9621;48.690;9.466;2023-11-21T12:27:45;4.28;;;0.70;;
18973;SDS011;9621;48.690;9.466;2023-11-21T12:30:14;2.78;;;1.10;;
18973;SDS011;9621;48.690;9.466;2023-11-21T12:32:42;2.08;;;1.30;;
18973;SDS011;9621;48.690;9.466;2023-11-21T12:35:11;4.78;;;2.53;;
18973;SDS011;9621;48.690;9.466;2023-11-21T12:37:39;2.15;;;1.55;;
18973;SDS011;9621;48.690;9.466;2023-11-21T12:40:08;2.15;;;1.40;;
18973;SDS011;9621;48.690;9.466;2023-11-21T12:42:37;1.25;;;1.13;;
18973;SDS011;9621;48.690;9.466;2023-11-21T12:45:18;1.48;;;1.13;;
18973;SDS011;9621;48.690;9.466;2023-11-21T12:47:46;2.70;;;1.35;;
18973;SDS011;9621;48.690;9.466;2023-11-21T12:50:14;1.77;;;0.95;;
18973;SDS011;9621;48.690;9.466;2023-11-21T12:52:42;1.45;;;1.00;;
18973;SDS011;9621;48.690;9.466;2023-11-21T12:55:15;1.27;;;0.80;;
18973;SDS011;9621;48.690;9.466;2023-11-21T12:57:44;1.30;;;0.80;;
18973;SDS011;9621;48.690;9.466;2023-11-21T13:00:13;1.67;;;1.00;;
18973;SDS011;9621;48.690;9.466;2023-11-21T13:02:52;1.73;;;1.10;;
18973;SDS011;9621;48.690;9.466;2023-11-21T13:05:26;1.73;;;1.10;;
18973;SDS011;9621;48.690;9.466;2023-11-21T13:07:53;2.22;;;0.82;;
18973;SDS011;9621;48.690;9.466;2023-11-21T13:10:22;1.83;;;0.98;;
18973;SDS011;9621;48.690;9.466;2023-11-21T13:12:51;1.00;;;0.80;;
18973;SDS011;9621;48.690;9.466;2023-11-21T13:15:21;0.90;;;0.85;;
18973;SDS011;9621;48.690;9.466;2023-11-21T13:17:48;1.05;;;0.85;;
18973;SDS011;9621;48.690;9.466;2023-11-21T13:20:16;1.30;;;1.05;;
18973;SDS011;9621;48.690;9.466;2023-11-21T13:22:46;1.25;;;0.98;;
18973;SDS011;9621;48.690;9.466;2023-11-21T13:25:15;1.40;;;0.95;;
18973;SDS011;9621;48.690;9.466;2023-11-21T13:27:43;1.02;;;0.93;;
18973;SDS011;9621;48.690;9.466;2023-11-21T13:30:11;0.77;;;0.70;;
18973;SDS011;9621;48.690;9.466;2023-11-21T13:32:42;1.23;;;0.75;;
18973;SDS011;9621;48.690;9.466;2023-11-21T13:35:11;2.65;;;0.70;;
18973;SDS011;9621;48.690;9.466;2023-11-21T13:37:46;1.58;;;1.15;;
18973;SDS011;9621;48.690;9.466;2023-11-21T13:40:19;0.88;;;0.82;;
18973;SDS011;9621;48.690;9.466;2023-11-21T13:42:50;1.42;;;0.80;;
18973;SDS011;9621;48.690;9.466;2023-11-21T13:45:20;2.05;;;1.10;;
18973;SDS011;9621;48.690;9.466;2023-11-21T13:47:49;1.17;;;1.05;;
18973;SDS011;9621;48.690;9.466;2023-11-21T13:50:22;1.70;;;0.90;;
18973;SDS011;9621;48.690;9.466;2023-11-21T13:52:54;2.97;;;1.10;;
18973;SDS011;9621;48.690;9.466;2023-11-21T13:55:21;0.95;;;0.90;;
18973;SDS011;9621;48.690;9.466;2023-11-21T13:57:50;1.50;;;1.00;;
18973;SDS011;9621;48.690;9.466;2023-11-21T14:00:17;2.63;;;0.93;;
18973;SDS011;9621;48.690;9.466;2023-11-21T14:03:04;1.20;;;0.90;;
18973;SDS011;9621;48.690;9.466;2023-11-21T14:05:36;1.13;;;1.02;;
18973;SDS011;9621;48.690;9.466;2023-11-21T14:08:04;1.65;;;1.00;;
18973;SDS011;9621;48.690;9.466;2023-11-21T14:10:32;2.80;;;1.20;;
18973;SDS011;9621;48.690;9.466;2023-11-21T14:13:05;1.88;;;1.20;;
18973;SDS011;9621;48.690;9.466;2023-11-21T14:15:32;1.33;;;1.20;;
18973;SDS011;9621;48.690;9.466;2023-11-21T14:18:04;1.42;;;1.30;;
18973;SDS011;9621;48.690;9.466;2023-11-21T14:20:35;1.30;;;1.20;;
18973;SDS011;9621;48.690;9.466;2023-11-21T14:23:02;1.35;;;1.25;;
18973;SDS011;9621;48.690;9.466;2023-11-21T14:25:29;2.13;;;1.40;;
18973;SDS011;9621;48.690;9.466;2023-11-21T14:27:57;3.50;;;1.70;;
18973;SDS011;9621;48.690;9.466;2023-11-21T14:30:24;1.13;;;1.03;;
18973;SDS011;9621;48.690;9.466;2023-11-21T14:32:52;1.40;;;1.30;;
18973;SDS011;9621;48.690;9.466;2023-11-21T14:35:20;0.93;;;0.90;;
18973;SDS011;9621;48.690;9.466;2023-11-21T14:37:47;2.87;;;1.00;;
18973;SDS011;9621;48.690;9.466;2023-11-21T14:40:17;1.13;;;1.00;;
18973;SDS011;9621;48.690;9.466;2023-11-21T14:42:47;2.07;;;1.07;;
18973;SDS011;9621;48.690;9.466;2023-11-21T14:45:17;1.77;;;1.30;;
18973;SDS011;9621;48.690;9.466;2023-11-21T14:47:45;2.93;;;1.27;;
18973;SDS011;9621;48.690;9.466;2023-11-21T14:50:20;2.87;;;1.10;;
18973;SDS011;9621;48.690;9.466;2023-11-21T14:53:16;3.00;;;1.30;;
18973;SDS011;9621;48.690;9.466;2023-11-21T14:56:04;1.57;;;1.47;;
18973;SDS011;9621;48.690;9.466;2023-11-21T14:58:32;4.03;;;1.53;;
18973;SDS011;9621;48.690;9.466;2023-11-21T15:01:00;5.00;;;1.57;;
18973;SDS011;9621;48.690;9.466;2023-11-21T15:03:26;4.20;;;2.10;;
18973;SDS011;9621;48.690;9.466;2023-11-21T15:06:10;2.07;;;1.67;;
18973;SDS011;9621;48.690;9.466;2023-11-21T15:08:52;2.80;;;2.00;;
18973;SDS011;9621;48.690;9.466;2023-11-21T15:11:42;2.73;;;1.97;;
18973;SDS011;9621;48.690;9.466;2023-11-21T15:14:08;1.80;;;1.70;;
18973;SDS011;9621;48.690;9.466;2023-11-21T15:16:38;3.53;;;2.10;;